createdAt,value
2019-04-20T00:03:23.689Z,24.12
2019-04-20T00:08:32.825Z,26.62
2019-04-20T00:13:49.877Z,29.50
2019-04-20T00:18:50.349Z,31.50
2019-04-20T00:23:56.602Z,30.29
2019-04-20T00:29:21.701Z,30.25
2019-04-20T00:34:24.123Z,42.62
2019-04-20T00:39:25.857Z,43.75
2019-04-20T00:44:35.873Z,44.25
2019-04-20T00:49:56.609Z,43.38
2019-04-20T00:54:51.682Z,41.75
2019-04-20T01:00:17.795Z,47.00
2019-04-20T01:05:22.931Z,44.63
2019-04-20T01:10:21.507Z,39.13
2019-04-20T01:15:36.421Z,40.50
2019-04-20T01:20:33.232Z,34.00
2019-04-20T01:25:43.431Z,37.00
2019-04-20T01:31:03.741Z,46.00
2019-04-20T01:36:19.535Z,41.37
2019-04-20T01:41:09.633Z,43.29
2019-04-20T01:46:22.233Z,35.75
2019-04-20T01:51:37.429Z,34.25
2019-04-20T01:56:47.247Z,37.25
2019-04-20T02:01:55.781Z,33.88
2019-04-20T02:07:01.393Z,41.63
2019-04-20T02:12:15.459Z,40.25
2019-04-20T02:17:28.383Z,39.88
2019-04-20T02:22:44.739Z,34.00
2019-04-20T02:27:43.287Z,37.13
2019-04-20T02:33:25.872Z,32.00
2019-04-20T02:38:25.135Z,34.25
2019-04-20T02:43:39.650Z,35.00
2019-04-20T02:48:40.013Z,35.63
2019-04-20T02:53:53.816Z,38.00
2019-04-20T02:58:50.260Z,35.50
2019-04-20T03:03:30.675Z,33.75
2019-04-20T03:08:52.707Z,32.00
2019-04-20T03:13:55.610Z,38.00
2019-04-20T03:18:58.342Z,35.25
2019-04-20T03:24:23.833Z,33.63
2019-04-20T03:29:15.850Z,31.25
2019-04-20T03:34:54.997Z,30.00
2019-04-20T03:39:37.606Z,33.00
2019-04-20T03:44:34.027Z,34.63
2019-04-20T03:50:04.666Z,31.62
2019-04-20T03:55:12.869Z,39.13
2019-04-20T04:00:16.293Z,32.00
2019-04-20T04:05:23.538Z,27.33
2019-04-20T04:10:27.320Z,30.00
2019-04-20T04:15:16.886Z,29.50
2019-04-20T04:20:21.449Z,26.50
2019-04-20T04:25:50.073Z,24.00
2019-04-20T04:31:00.070Z,32.25
2019-04-20T04:36:00.497Z,29.00
2019-04-20T04:41:20.239Z,24.57
2019-04-20T04:46:05.867Z,24.83
2019-04-20T04:51:21.260Z,26.50
2019-04-20T04:56:26.802Z,25.00
2019-04-20T05:01:32.745Z,31.00
2019-04-20T05:06:48.128Z,27.50
2019-04-20T05:11:45.302Z,26.12
2019-04-20T05:17:08.785Z,26.00
2019-04-20T05:22:21.848Z,20.37
2019-04-20T05:27:32.122Z,24.37
2019-04-20T05:32:23.574Z,29.75
2019-04-20T05:37:51.307Z,27.00
2019-04-20T05:42:55.669Z,27.50
2019-04-20T05:47:59.237Z,26.00
2019-04-20T05:53:16.129Z,23.00
2019-04-20T05:58:17.924Z,26.00
2019-04-20T06:03:23.048Z,26.67
2019-04-20T06:08:38.832Z,26.00
2019-04-20T06:13:33.631Z,30.88
2019-04-20T06:18:42.513Z,38.00
2019-04-20T06:23:57.643Z,41.22
2019-04-20T06:29:00.071Z,41.13
2019-04-20T06:34:30.354Z,43.25
2019-04-20T06:44:41.392Z,40.12
2019-04-20T06:50:01.743Z,47.00
2019-04-20T06:54:48.527Z,48.38
2019-04-20T07:00:05.796Z,49.00
2019-04-20T07:05:05.644Z,45.00
2019-04-20T07:10:18.048Z,45.00
2019-04-20T07:15:21.377Z,43.33
2019-04-20T07:20:39.715Z,44.25
2019-04-20T07:25:42.827Z,44.38
2019-04-20T07:30:52.012Z,43.25
2019-04-20T07:35:55.958Z,46.00
2019-04-20T07:41:02.919Z,36.00
2019-04-20T07:46:23.229Z,37.50
2019-04-20T07:51:06.870Z,32.75
2019-04-20T07:56:23.494Z,33.50
2019-04-20T08:01:38.625Z,34.63
2019-04-20T08:06:30.067Z,32.75
2019-04-20T08:11:56.735Z,26.37
2019-04-20T08:17:15.390Z,30.25
2019-04-20T08:22:15.570Z,44.38
2019-04-20T08:27:04.737Z,32.29
2019-04-20T08:32:27.100Z,32.33
2019-04-20T08:37:34.293Z,33.50
2019-04-20T08:42:49.599Z,34.33
2019-04-20T08:47:57.044Z,44.00
2019-04-20T08:53:16.057Z,27.57
2019-04-20T08:57:40.537Z,27.00
2019-04-20T09:02:48.845Z,23.00
2019-04-20T09:08:02.527Z,23.25
2019-04-20T09:13:12.094Z,19.00
2019-04-20T09:18:17.852Z,16.71
2019-04-20T09:23:26.608Z,23.71
2019-04-20T09:28:32.320Z,25.88
2019-04-20T09:33:48.494Z,18.71
2019-04-20T09:38:47.886Z,17.71
2019-04-20T09:43:43.300Z,16.67
2019-04-20T09:48:54.768Z,19.00
2019-04-20T09:54:04.268Z,20.71
2019-04-20T09:59:25.207Z,19.29
2019-04-20T10:04:13.381Z,22.87
2019-04-20T10:09:26.788Z,28.57
2019-04-20T10:14:27.197Z,25.29
2019-04-20T10:19:36.445Z,21.86
2019-04-20T10:24:45.790Z,21.29
2019-04-20T10:29:51.351Z,29.71
2019-04-20T10:34:59.384Z,23.50
2019-04-20T10:40:04.797Z,35.50
2019-04-20T10:45:10.974Z,19.43
2019-04-20T10:50:16.748Z,18.40
2019-04-20T10:55:21.018Z,16.50
2019-04-20T11:00:37.349Z,22.86
2019-04-20T11:05:44.747Z,17.86
2019-04-20T11:11:01.535Z,24.25
2019-04-20T11:15:57.600Z,16.37
2019-04-20T11:21:03.609Z,30.12
2019-04-20T11:26:10.703Z,22.87
2019-04-20T11:31:18.019Z,27.50
2019-04-20T11:36:23.246Z,13.17
2019-04-20T11:41:31.046Z,23.00
2019-04-20T11:46:38.746Z,31.57
2019-04-20T11:51:43.586Z,6.17
2019-04-20T11:56:48.984Z,11.17
2019-04-20T12:01:59.029Z,13.33
2019-04-20T12:07:00.990Z,10.17
2019-04-20T12:12:15.627Z,9.00
2019-04-20T12:17:11.512Z,9.67
2019-04-20T12:22:15.938Z,6.40
2019-04-20T12:27:22.862Z,8.17
2019-04-20T12:32:34.164Z,8.67
2019-04-20T12:37:36.890Z,7.40
2019-04-20T12:42:44.703Z,12.71
2019-04-20T12:47:51.480Z,12.29
2019-04-20T12:52:59.639Z,6.00
2019-04-20T12:58:05.295Z,14.57
2019-04-20T13:03:09.977Z,7.00
2019-04-20T13:08:20.887Z,7.33
2019-04-20T13:13:19.071Z,5.33
2019-04-20T13:18:23.335Z,11.00
2019-04-20T13:23:31.048Z,10.50
2019-04-20T13:28:39.133Z,9.80
2019-04-20T13:33:45.347Z,7.00
2019-04-20T13:38:50.061Z,8.60
2019-04-20T13:44:01.206Z,15.60
2019-04-20T13:49:04.924Z,7.00
2019-04-20T13:54:16.196Z,10.33
2019-04-20T13:59:16.061Z,9.33
2019-04-20T14:04:21.139Z,13.00
2019-04-20T14:09:27.669Z,13.00
2019-04-20T14:14:31.104Z,8.40
2019-04-20T14:19:34.896Z,9.33
2019-04-20T14:24:40.518Z,11.00
2019-04-20T14:29:46.292Z,6.00
2019-04-20T14:34:51.286Z,7.00
2019-04-20T14:39:56.451Z,6.83
2019-04-20T14:45:01.914Z,7.67
2019-04-20T14:50:09.809Z,6.00
2019-04-20T14:55:17.181Z,7.50
2019-04-20T15:00:23.620Z,7.00
2019-04-20T15:05:28.772Z,7.00
2019-04-20T15:10:33.695Z,6.83
2019-04-20T15:15:38.759Z,9.00
2019-04-20T15:20:42.140Z,7.00
2019-04-20T15:25:46.455Z,7.00
2019-04-20T15:30:54.162Z,10.67
2019-04-20T15:36:02.261Z,10.00
2019-04-20T15:41:12.947Z,11.43
2019-04-20T15:46:17.255Z,12.33
2019-04-20T15:51:21.690Z,6.40
2019-04-20T15:56:29.665Z,11.33
2019-04-20T16:01:34.530Z,20.14
2019-04-20T16:06:39.126Z,8.67
2019-04-20T16:11:48.829Z,12.71
2019-04-20T16:16:52.755Z,7.00
2019-04-20T16:21:57.511Z,10.83
2019-04-20T16:27:02.424Z,7.33
2019-04-20T16:32:08.915Z,4.60
2019-04-20T16:37:14.690Z,9.00
2019-04-20T16:42:22.317Z,12.57
2019-04-20T16:47:30.399Z,10.00
2019-04-20T16:52:35.034Z,10.57
2019-04-20T16:57:39.698Z,8.67
2019-04-20T17:02:44.613Z,8.50
2019-04-20T17:07:48.983Z,9.60
2019-04-20T17:12:53.702Z,8.00
2019-04-20T17:18:01.439Z,10.33
2019-04-20T17:23:08.449Z,6.17
2019-04-20T17:28:13.184Z,12.43
2019-04-20T17:33:20.589Z,10.00
2019-04-20T17:38:22.575Z,8.00
2019-04-20T17:43:37.114Z,8.00
2019-04-20T17:48:42.983Z,7.00
2019-04-20T17:53:50.882Z,6.00
2019-04-20T17:58:48.280Z,7.00
2019-04-20T18:04:18.721Z,7.80
2019-04-20T18:09:23.709Z,11.00
2019-04-20T18:14:28.407Z,8.00
2019-04-20T18:19:19.033Z,10.83
2019-04-20T18:24:44.381Z,11.00
2019-04-20T18:29:45.579Z,9.50
2019-04-20T18:34:36.235Z,9.00
2019-04-20T18:39:50.564Z,7.00
2019-04-20T18:45:09.062Z,8.00
2019-04-20T18:50:04.505Z,5.00
2019-04-20T18:55:01.689Z,10.00
2019-04-20T19:00:07.895Z,9.00
2019-04-20T19:05:14.098Z,14.86
2019-04-20T19:10:25.502Z,9.83
2019-04-20T19:15:43.878Z,10.33
2019-04-20T19:20:34.736Z,13.33
2019-04-20T19:25:44.557Z,12.36
2019-04-20T19:31:02.820Z,21.00
2019-04-20T19:36:10.577Z,11.00
2019-04-20T19:41:19.008Z,12.29
2019-04-20T19:46:40.683Z,12.17
2019-04-20T19:51:34.073Z,13.00
2019-04-20T19:56:38.810Z,9.67
2019-04-20T20:01:27.597Z,12.71
2019-04-20T20:06:39.133Z,11.67
2019-04-20T20:11:42.363Z,13.17
2019-04-20T20:17:06.797Z,14.67
2019-04-20T20:22:02.626Z,10.17
2019-04-20T20:27:06.130Z,11.67
2019-04-20T20:32:17.814Z,13.71
2019-04-20T20:37:25.408Z,12.17
2019-04-20T20:42:35.471Z,11.00
2019-04-20T20:47:49.313Z,19.00
2019-04-20T20:52:57.865Z,19.00
2019-04-20T20:57:55.512Z,11.33
2019-04-20T21:02:59.390Z,10.86
2019-04-20T21:08:01.665Z,16.71
2019-04-20T21:13:10.040Z,13.17
2019-04-20T21:18:37.924Z,15.71
2019-04-20T21:23:40.006Z,15.29
2019-04-20T21:28:36.110Z,15.29
2019-04-20T21:33:40.570Z,13.50
2019-04-20T21:38:48.700Z,13.29
2019-04-20T21:43:54.049Z,16.00
2019-04-20T21:49:11.867Z,17.50
2019-04-20T21:54:06.669Z,13.57
2019-04-20T21:59:22.671Z,16.00
2019-04-20T22:04:22.939Z,17.00
2019-04-20T22:09:34.521Z,17.37
2019-04-20T22:14:35.657Z,16.00
2019-04-20T22:19:48.989Z,16.71
2019-04-20T22:25:01.417Z,18.00
2019-04-20T22:29:59.946Z,19.14
2019-04-20T22:35:09.959Z,16.00
2019-04-20T22:40:19.659Z,17.00
2019-04-20T22:45:19.225Z,13.86
2019-04-20T22:50:40.142Z,13.00
2019-04-20T22:55:59.962Z,17.00
2019-04-20T23:00:42.140Z,20.00
2019-04-20T23:05:44.895Z,16.00
2019-04-20T23:10:51.559Z,20.50
2019-04-20T23:16:00.858Z,18.29
2019-04-20T23:21:10.454Z,20.75
2019-04-20T23:26:16.008Z,23.00
2019-04-20T23:31:23.879Z,18.14
2019-04-20T23:36:36.544Z,22.25
2019-04-20T23:41:35.702Z,20.00
2019-04-20T23:46:41.147Z,21.33
2019-04-20T23:52:03.641Z,22.50
2019-04-20T23:56:55.514Z,21.43
